sensor_id;sensor_type;location;lat;lon;timestamp;temperature;humidity
2621;DHT22;1320;48.128;11.592;2022-12-20T00:00:49;4.70;99.90
2621;DHT22;1320;48.128;11.592;2022-12-20T00:03:15;4.70;99.90
2621;DHT22;1320;48.128;11.592;2022-12-20T00:05:42;4.70;99.90
2621;DHT22;1320;48.128;11.592;2022-12-20T00:08:09;4.70;99.90
2621;DHT22;1320;48.128;11.592;2022-12-20T00:10:40;4.70;99.90
2621;DHT22;1320;48.128;11.592;2022-12-20T00:13:05;4.70;99.90
2621;DHT22;1320;48.128;11.592;2022-12-20T00:15:31;4.70;99.90
2621;DHT22;1320;48.128;11.592;2022-12-20T00:17:58;4.70;99.90
2621;DHT22;1320;48.128;11.592;2022-12-20T00:20:24;4.80;99.90
2621;DHT22;1320;48.128;11.592;2022-12-20T00:22:50;4.70;99.90
2621;DHT22;1320;48.128;11.592;2022-12-20T00:25:15;4.70;99.90
2621;DHT22;1320;48.128;11.592;2022-12-20T00:27:41;4.70;99.90
2621;DHT22;1320;48.128;11.592;2022-12-20T00:30:07;4.70;99.90
2621;DHT22;1320;48.128;11.592;2022-12-20T00:32:33;4.70;99.90
2621;DHT22;1320;48.128;11.592;2022-12-20T00:34:59;4.70;99.90
2621;DHT22;1320;48.128;11.592;2022-12-20T00:37:24;4.70;99.90
2621;DHT22;1320;48.128;11.592;2022-12-20T00:39:50;4.80;99.90
2621;DHT22;1320;48.128;11.592;2022-12-20T00:42:16;4.80;99.90
2621;DHT22;1320;48.128;11.592;2022-12-20T00:44:41;4.80;99.90
2621;DHT22;1320;48.128;11.592;2022-12-20T00:47:07;4.80;99.90
2621;DHT22;1320;48.128;11.592;2022-12-20T00:49:32;4.80;99.90
2621;DHT22;1320;48.128;11.592;2022-12-20T00:51:58;4.80;99.90
2621;DHT22;1320;48.128;11.592;2022-12-20T00:54:24;4.80;99.90
2621;DHT22;1320;48.128;11.592;2022-12-20T00:56:49;4.80;99.90
2621;DHT22;1320;48.128;11.592;2022-12-20T00:59:15;4.80;99.90
2621;DHT22;1320;48.128;11.592;2022-12-20T01:01:41;4.80;99.90
2621;DHT22;1320;48.128;11.592;2022-12-20T01:04:06;4.80;99.90
2621;DHT22;1320;48.128;11.592;2022-12-20T01:06:33;4.80;99.90
2621;DHT22;1320;48.128;11.592;2022-12-20T01:08:59;4.70;99.90
2621;DHT22;1320;48.128;11.592;2022-12-20T01:11:27;4.70;99.90
2621;DHT22;1320;48.128;11.592;2022-12-20T01:13:55;4.80;99.90
2621;DHT22;1320;48.128;11.592;2022-12-20T01:16:24;4.80;99.90
2621;DHT22;1320;48.128;11.592;2022-12-20T01:18:50;4.80;99.90
2621;DHT22;1320;48.128;11.592;2022-12-20T01:21:18;4.70;99.90
2621;DHT22;1320;48.128;11.592;2022-12-20T01:23:43;4.70;99.90
2621;DHT22;1320;48.128;11.592;2022-12-20T01:26:16;4.70;99.90
2621;DHT22;1320;48.128;11.592;2022-12-20T01:28:43;4.70;99.90
2621;DHT22;1320;48.128;11.592;2022-12-20T01:31:11;4.70;99.90
2621;DHT22;1320;48.128;11.592;2022-12-20T01:33:38;4.70;99.90
2621;DHT22;1320;48.128;11.592;2022-12-20T01:36:06;4.70;99.90
2621;DHT22;1320;48.128;11.592;2022-12-20T01:38:33;4.70;99.90
2621;DHT22;1320;48.128;11.592;2022-12-20T01:41:00;4.70;99.90
2621;DHT22;1320;48.128;11.592;2022-12-20T01:43:46;4.70;99.90
2621;DHT22;1320;48.128;11.592;2022-12-20T01:46:12;4.70;99.90
2621;DHT22;1320;48.128;11.592;2022-12-20T01:48:39;4.70;99.90
2621;DHT22;1320;48.128;11.592;2022-12-20T01:51:05;4.70;99.90
2621;DHT22;1320;48.128;11.592;2022-12-20T01:53:31;4.70;99.90
2621;DHT22;1320;48.128;11.592;2022-12-20T01:56:00;4.70;99.90
2621;DHT22;1320;48.128;11.592;2022-12-20T01:58:28;4.70;99.90
2621;DHT22;1320;48.128;11.592;2022-12-20T02:00:54;4.70;99.90
2621;DHT22;1320;48.128;11.592;2022-12-20T02:03:20;4.80;99.90
2621;DHT22;1320;48.128;11.592;2022-12-20T02:05:46;4.80;99.90
2621;DHT22;1320;48.128;11.592;2022-12-20T02:08:16;4.80;99.90
2621;DHT22;1320;48.128;11.592;2022-12-20T02:11:08;4.90;99.90
2621;DHT22;1320;48.128;11.592;2022-12-20T02:14:13;4.90;99.90
2621;DHT22;1320;48.128;11.592;2022-12-20T02:17:01;4.90;99.90
2621;DHT22;1320;48.128;11.592;2022-12-20T02:22:15;4.90;99.90
2621;DHT22;1320;48.128;11.592;2022-12-20T02:25:15;4.90;99.90
2621;DHT22;1320;48.128;11.592;2022-12-20T02:30:17;4.90;99.90
2621;DHT22;1320;48.128;11.592;2022-12-20T02:32:58;4.90;99.90
2621;DHT22;1320;48.128;11.592;2022-12-20T02:35:28;4.90;99.90
2621;DHT22;1320;48.128;11.592;2022-12-20T02:37:57;4.90;99.90
2621;DHT22;1320;48.128;11.592;2022-12-20T02:40:26;5.00;99.90
2621;DHT22;1320;48.128;11.592;2022-12-20T02:42:58;5.00;99.90
2621;DHT22;1320;48.128;11.592;2022-12-20T02:45:27;5.00;99.90
2621;DHT22;1320;48.128;11.592;2022-12-20T02:47:58;5.00;99.90
2621;DHT22;1320;48.128;11.592;2022-12-20T02:50:51;5.00;99.90
2621;DHT22;1320;48.128;11.592;2022-12-20T02:53:18;5.00;99.90
2621;DHT22;1320;48.128;11.592;2022-12-20T02:56:12;5.00;99.90
2621;DHT22;1320;48.128;11.592;2022-12-20T02:58:54;5.00;99.90
2621;DHT22;1320;48.128;11.592;2022-12-20T03:01:27;5.00;99.90
2621;DHT22;1320;48.128;11.592;2022-12-20T03:03:56;5.00;99.90
2621;DHT22;1320;48.128;11.592;2022-12-20T03:06:22;5.00;99.90
2621;DHT22;1320;48.128;11.592;2022-12-20T03:08:49;5.10;99.90
2621;DHT22;1320;48.128;11.592;2022-12-20T03:11:15;5.10;99.90
2621;DHT22;1320;48.128;11.592;2022-12-20T03:13:40;5.10;99.90
2621;DHT22;1320;48.128;11.592;2022-12-20T03:16:07;5.10;99.90
2621;DHT22;1320;48.128;11.592;2022-12-20T03:18:33;5.10;99.90
2621;DHT22;1320;48.128;11.592;2022-12-20T03:20:59;5.20;99.90
2621;DHT22;1320;48.128;11.592;2022-12-20T03:23:25;5.20;99.90
2621;DHT22;1320;48.128;11.592;2022-12-20T03:25:50;5.20;99.90
2621;DHT22;1320;48.128;11.592;2022-12-20T03:28:16;5.20;99.90
2621;DHT22;1320;48.128;11.592;2022-12-20T03:30:42;5.20;99.90
2621;DHT22;1320;48.128;11.592;2022-12-20T03:33:07;5.20;99.90
2621;DHT22;1320;48.128;11.592;2022-12-20T03:35:33;5.30;99.90
2621;DHT22;1320;48.128;11.592;2022-12-20T03:38:00;5.30;99.90
2621;DHT22;1320;48.128;11.592;2022-12-20T03:40:26;5.30;99.90
2621;DHT22;1320;48.128;11.592;2022-12-20T03:42:52;5.30;99.90
2621;DHT22;1320;48.128;11.592;2022-12-20T03:45:17;5.40;99.90
2621;DHT22;1320;48.128;11.592;2022-12-20T03:47:43;5.40;99.90
2621;DHT22;1320;48.128;11.592;2022-12-20T03:50:09;5.40;99.90
2621;DHT22;1320;48.128;11.592;2022-12-20T03:52:35;5.40;99.90
2621;DHT22;1320;48.128;11.592;2022-12-20T03:55:01;5.40;99.90
2621;DHT22;1320;48.128;11.592;2022-12-20T03:57:27;5.40;99.90
2621;DHT22;1320;48.128;11.592;2022-12-20T03:59:53;5.30;99.90
2621;DHT22;1320;48.128;11.592;2022-12-20T04:02:19;5.30;99.90
2621;DHT22;1320;48.128;11.592;2022-12-20T04:04:46;5.30;99.90
2621;DHT22;1320;48.128;11.592;2022-12-20T04:07:11;5.30;99.90
2621;DHT22;1320;48.128;11.592;2022-12-20T04:09:37;5.30;99.90
2621;DHT22;1320;48.128;11.592;2022-12-20T04:12:03;5.30;99.90
2621;DHT22;1320;48.128;11.592;2022-12-20T04:14:29;5.30;99.90
2621;DHT22;1320;48.128;11.592;2022-12-20T04:16:54;5.30;99.90
2621;DHT22;1320;48.128;11.592;2022-12-20T04:19:20;5.30;99.90
2621;DHT22;1320;48.128;11.592;2022-12-20T04:21:45;5.30;99.90
2621;DHT22;1320;48.128;11.592;2022-12-20T04:24:11;5.30;99.90
2621;DHT22;1320;48.128;11.592;2022-12-20T04:26:37;5.30;99.90
2621;DHT22;1320;48.128;11.592;2022-12-20T04:29:02;5.30;99.90
2621;DHT22;1320;48.128;11.592;2022-12-20T04:31:28;5.40;99.90
2621;DHT22;1320;48.128;11.592;2022-12-20T04:33:54;5.40;99.90
2621;DHT22;1320;48.128;11.592;2022-12-20T04:36:20;5.40;99.90
2621;DHT22;1320;48.128;11.592;2022-12-20T04:38:46;5.40;99.90
2621;DHT22;1320;48.128;11.592;2022-12-20T04:41:11;5.40;99.90
2621;DHT22;1320;48.128;11.592;2022-12-20T04:43:48;5.40;99.90
2621;DHT22;1320;48.128;11.592;2022-12-20T04:46:13;5.40;99.90
2621;DHT22;1320;48.128;11.592;2022-12-20T04:48:40;5.40;99.90
2621;DHT22;1320;48.128;11.592;2022-12-20T04:51:06;5.30;99.90
2621;DHT22;1320;48.128;11.592;2022-12-20T04:53:31;5.30;99.90
2621;DHT22;1320;48.128;11.592;2022-12-20T04:56:24;5.30;99.90
2621;DHT22;1320;48.128;11.592;2022-12-20T04:58:52;5.30;99.90
2621;DHT22;1320;48.128;11.592;2022-12-20T05:01:18;5.30;99.90
2621;DHT22;1320;48.128;11.592;2022-12-20T05:03:44;5.30;99.90
2621;DHT22;1320;48.128;11.592;2022-12-20T05:06:11;5.40;99.90
2621;DHT22;1320;48.128;11.592;2022-12-20T05:08:41;5.40;99.90
2621;DHT22;1320;48.128;11.592;2022-12-20T05:11:07;5.40;99.90
2621;DHT22;1320;48.128;11.592;2022-12-20T05:13:33;5.50;99.90
2621;DHT22;1320;48.128;11.592;2022-12-20T05:15:58;5.50;99.90
2621;DHT22;1320;48.128;11.592;2022-12-20T05:18:26;5.50;99.90
2621;DHT22;1320;48.128;11.592;2022-12-20T05:20:59;5.60;99.90
2621;DHT22;1320;48.128;11.592;2022-12-20T05:23:45;5.60;99.90
2621;DHT22;1320;48.128;11.592;2022-12-20T05:26:31;5.60;99.90
2621;DHT22;1320;48.128;11.592;2022-12-20T05:29:01;5.60;99.90
2621;DHT22;1320;48.128;11.592;2022-12-20T05:31:27;5.60;99.90
2621;DHT22;1320;48.128;11.592;2022-12-20T05:33:52;5.60;99.90
2621;DHT22;1320;48.128;11.592;2022-12-20T05:36:18;5.60;99.90
2621;DHT22;1320;48.128;11.592;2022-12-20T05:38:46;5.60;99.90
2621;DHT22;1320;48.128;11.592;2022-12-20T05:41:12;5.60;99.90
2621;DHT22;1320;48.128;11.592;2022-12-20T05:43:37;5.60;99.90
2621;DHT22;1320;48.128;11.592;2022-12-20T05:46:03;5.70;99.90
2621;DHT22;1320;48.128;11.592;2022-12-20T05:48:29;5.70;99.90
2621;DHT22;1320;48.128;11.592;2022-12-20T05:50:54;5.60;99.90
2621;DHT22;1320;48.128;11.592;2022-12-20T05:53:20;5.60;99.90
2621;DHT22;1320;48.128;11.592;2022-12-20T05:55:48;5.50;99.90
2621;DHT22;1320;48.128;11.592;2022-12-20T05:58:14;5.50;99.90
2621;DHT22;1320;48.128;11.592;2022-12-20T06:00:41;5.40;99.90
2621;DHT22;1320;48.128;11.592;2022-12-20T06:03:08;5.40;99.90
2621;DHT22;1320;48.128;11.592;2022-12-20T06:05:35;5.30;99.90
2621;DHT22;1320;48.128;11.592;2022-12-20T06:08:02;5.30;99.90
2621;DHT22;1320;48.128;11.592;2022-12-20T06:10:27;5.30;99.90
2621;DHT22;1320;48.128;11.592;2022-12-20T06:12:53;5.30;99.90
2621;DHT22;1320;48.128;11.592;2022-12-20T06:15:19;5.30;99.90
2621;DHT22;1320;48.128;11.592;2022-12-20T06:17:44;5.30;99.90
2621;DHT22;1320;48.128;11.592;2022-12-20T06:20:10;5.30;99.90
2621;DHT22;1320;48.128;11.592;2022-12-20T06:22:36;5.30;99.90
2621;DHT22;1320;48.128;11.592;2022-12-20T06:25:03;5.30;99.90
2621;DHT22;1320;48.128;11.592;2022-12-20T06:27:30;5.30;99.90
2621;DHT22;1320;48.128;11.592;2022-12-20T06:29:55;5.30;99.90
2621;DHT22;1320;48.128;11.592;2022-12-20T06:32:21;5.40;99.90
2621;DHT22;1320;48.128;11.592;2022-12-20T06:34:46;5.40;99.90
2621;DHT22;1320;48.128;11.592;2022-12-20T06:37:12;5.40;99.90
2621;DHT22;1320;48.128;11.592;2022-12-20T06:39:38;5.50;99.90
2621;DHT22;1320;48.128;11.592;2022-12-20T06:42:04;5.60;99.90
2621;DHT22;1320;48.128;11.592;2022-12-20T06:44:29;5.60;99.90
2621;DHT22;1320;48.128;11.592;2022-12-20T06:46:55;5.70;99.90
2621;DHT22;1320;48.128;11.592;2022-12-20T06:49:21;5.70;99.90
2621;DHT22;1320;48.128;11.592;2022-12-20T06:51:47;5.70;99.90
2621;DHT22;1320;48.128;11.592;2022-12-20T06:54:13;5.70;99.90
2621;DHT22;1320;48.128;11.592;2022-12-20T06:56:38;5.70;99.90
2621;DHT22;1320;48.128;11.592;2022-12-20T06:59:05;5.70;99.90
2621;DHT22;1320;48.128;11.592;2022-12-20T07:01:31;5.70;99.90
2621;DHT22;1320;48.128;11.592;2022-12-20T07:03:57;5.70;99.90
2621;DHT22;1320;48.128;11.592;2022-12-20T07:06:23;5.70;99.90
2621;DHT22;1320;48.128;11.592;2022-12-20T07:08:48;5.70;99.90
2621;DHT22;1320;48.128;11.592;2022-12-20T07:11:14;5.70;99.90
2621;DHT22;1320;48.128;11.592;2022-12-20T07:13:40;5.70;99.90
2621;DHT22;1320;48.128;11.592;2022-12-20T07:16:06;5.70;99.90
2621;DHT22;1320;48.128;11.592;2022-12-20T07:18:32;5.70;99.90
2621;DHT22;1320;48.128;11.592;2022-12-20T07:21:01;5.70;99.90
2621;DHT22;1320;48.128;11.592;2022-12-20T07:23:27;5.70;99.90
2621;DHT22;1320;48.128;11.592;2022-12-20T07:25:54;5.80;99.90
2621;DHT22;1320;48.128;11.592;2022-12-20T07:28:20;5.70;99.90
2621;DHT22;1320;48.128;11.592;2022-12-20T07:30:46;5.70;99.90
2621;DHT22;1320;48.128;11.592;2022-12-20T07:33:12;5.70;99.90
2621;DHT22;1320;48.128;11.592;2022-12-20T07:35:37;5.80;99.90
2621;DHT22;1320;48.128;11.592;2022-12-20T07:38:03;5.80;99.90
2621;DHT22;1320;48.128;11.592;2022-12-20T07:40:29;5.80;99.90
2621;DHT22;1320;48.128;11.592;2022-12-20T07:42:54;5.80;99.90
2621;DHT22;1320;48.128;11.592;2022-12-20T07:45:20;5.80;99.90
2621;DHT22;1320;48.128;11.592;2022-12-20T07:47:46;5.80;99.90
2621;DHT22;1320;48.128;11.592;2022-12-20T07:50:11;5.80;99.90
2621;DHT22;1320;48.128;11.592;2022-12-20T07:52:38;5.80;99.90
2621;DHT22;1320;48.128;11.592;2022-12-20T07:55:06;5.90;99.90
2621;DHT22;1320;48.128;11.592;2022-12-20T07:57:43;5.90;99.90
2621;DHT22;1320;48.128;11.592;2022-12-20T08:00:11;5.90;99.90
2621;DHT22;1320;48.128;11.592;2022-12-20T08:02:45;5.90;99.90
2621;DHT22;1320;48.128;11.592;2022-12-20T08:05:12;6.00;99.90
2621;DHT22;1320;48.128;11.592;2022-12-20T08:07:39;6.00;99.90
2621;DHT22;1320;48.128;11.592;2022-12-20T08:10:08;6.10;99.90
2621;DHT22;1320;48.128;11.592;2022-12-20T08:12:34;6.10;99.90
2621;DHT22;1320;48.128;11.592;2022-12-20T08:15:00;6.20;99.90
2621;DHT22;1320;48.128;11.592;2022-12-20T08:17:25;6.30;99.90
2621;DHT22;1320;48.128;11.592;2022-12-20T08:19:51;6.40;99.90
2621;DHT22;1320;48.128;11.592;2022-12-20T08:22:17;6.50;99.90
2621;DHT22;1320;48.128;11.592;2022-12-20T08:24:44;6.60;99.90
2621;DHT22;1320;48.128;11.592;2022-12-20T08:27:10;6.60;99.90
2621;DHT22;1320;48.128;11.592;2022-12-20T08:29:35;6.70;99.90
2621;DHT22;1320;48.128;11.592;2022-12-20T08:32:01;6.70;99.90
2621;DHT22;1320;48.128;11.592;2022-12-20T08:34:27;6.80;99.90
2621;DHT22;1320;48.128;11.592;2022-12-20T08:36:52;6.80;99.90
2621;DHT22;1320;48.128;11.592;2022-12-20T08:39:18;6.90;99.90
2621;DHT22;1320;48.128;11.592;2022-12-20T08:41:44;6.90;99.90
2621;DHT22;1320;48.128;11.592;2022-12-20T08:44:10;6.90;99.90
2621;DHT22;1320;48.128;11.592;2022-12-20T08:46:36;7.00;99.90
2621;DHT22;1320;48.128;11.592;2022-12-20T08:49:06;7.10;99.90
2621;DHT22;1320;48.128;11.592;2022-12-20T08:51:32;7.10;99.90
2621;DHT22;1320;48.128;11.592;2022-12-20T08:53:58;7.20;99.90
2621;DHT22;1320;48.128;11.592;2022-12-20T08:56:24;7.30;99.90
2621;DHT22;1320;48.128;11.592;2022-12-20T08:58:50;7.30;99.90
2621;DHT22;1320;48.128;11.592;2022-12-20T09:01:18;7.30;99.90
2621;DHT22;1320;48.128;11.592;2022-12-20T09:03:44;7.30;99.90
2621;DHT22;1320;48.128;11.592;2022-12-20T09:06:13;7.40;99.90
2621;DHT22;1320;48.128;11.592;2022-12-20T09:08:39;7.40;99.90
2621;DHT22;1320;48.128;11.592;2022-12-20T09:11:07;7.40;99.90
2621;DHT22;1320;48.128;11.592;2022-12-20T09:13:33;7.50;99.90
2621;DHT22;1320;48.128;11.592;2022-12-20T09:16:00;7.50;99.90
2621;DHT22;1320;48.128;11.592;2022-12-20T09:18:26;7.60;99.90
2621;DHT22;1320;48.128;11.592;2022-12-20T09:20:52;7.70;99.90
2621;DHT22;1320;48.128;11.592;2022-12-20T09:23:17;7.70;99.90
2621;DHT22;1320;48.128;11.592;2022-12-20T09:25:43;7.70;99.90
2621;DHT22;1320;48.128;11.592;2022-12-20T09:28:09;7.70;99.90
2621;DHT22;1320;48.128;11.592;2022-12-20T09:30:35;7.70;99.90
2621;DHT22;1320;48.128;11.592;2022-12-20T09:33:00;7.70;99.90
2621;DHT22;1320;48.128;11.592;2022-12-20T09:35:26;7.70;99.90
2621;DHT22;1320;48.128;11.592;2022-12-20T09:37:52;7.70;99.90
2621;DHT22;1320;48.128;11.592;2022-12-20T09:40:20;7.70;99.90
2621;DHT22;1320;48.128;11.592;2022-12-20T09:42:48;7.70;99.90
2621;DHT22;1320;48.128;11.592;2022-12-20T09:45:27;7.80;99.90
2621;DHT22;1320;48.128;11.592;2022-12-20T09:47:54;7.90;99.90
2621;DHT22;1320;48.128;11.592;2022-12-20T09:53:18;8.00;99.90
2621;DHT22;1320;48.128;11.592;2022-12-20T10:01:19;7.90;99.90
2621;DHT22;1320;48.128;11.592;2022-12-20T10:03:45;7.90;99.90
2621;DHT22;1320;48.128;11.592;2022-12-20T10:08:56;8.00;99.90
2621;DHT22;1320;48.128;11.592;2022-12-20T10:14:17;8.10;99.90
2621;DHT22;1320;48.128;11.592;2022-12-20T10:16:50;8.20;99.90
2621;DHT22;1320;48.128;11.592;2022-12-20T10:19:38;8.40;99.90
2621;DHT22;1320;48.128;11.592;2022-12-20T10:22:21;8.50;99.90
2621;DHT22;1320;48.128;11.592;2022-12-20T10:24:58;8.60;99.90
2621;DHT22;1320;48.128;11.592;2022-12-20T10:27:25;8.70;99.90
2621;DHT22;1320;48.128;11.592;2022-12-20T10:29:51;8.80;99.90
2621;DHT22;1320;48.128;11.592;2022-12-20T10:32:22;8.80;99.90
2621;DHT22;1320;48.128;11.592;2022-12-20T10:35:19;8.90;99.90
2621;DHT22;1320;48.128;11.592;2022-12-20T10:38:00;9.00;99.90
2621;DHT22;1320;48.128;11.592;2022-12-20T10:42:53;9.10;99.90
2621;DHT22;1320;48.128;11.592;2022-12-20T10:47:50;9.20;99.90
2621;DHT22;1320;48.128;11.592;2022-12-20T10:50:21;9.30;99.90
2621;DHT22;1320;48.128;11.592;2022-12-20T10:55:41;9.50;99.90
2621;DHT22;1320;48.128;11.592;2022-12-20T10:58:17;9.60;99.90
2621;DHT22;1320;48.128;11.592;2022-12-20T11:00:47;9.70;99.90
2621;DHT22;1320;48.128;11.592;2022-12-20T11:03:17;9.80;99.90
2621;DHT22;1320;48.128;11.592;2022-12-20T11:05:56;9.80;99.90
2621;DHT22;1320;48.128;11.592;2022-12-20T11:08:23;9.80;99.90
2621;DHT22;1320;48.128;11.592;2022-12-20T11:10:49;9.90;99.90
2621;DHT22;1320;48.128;11.592;2022-12-20T11:13:22;10.00;99.90
2621;DHT22;1320;48.128;11.592;2022-12-20T11:15:49;10.10;99.90
2621;DHT22;1320;48.128;11.592;2022-12-20T11:18:39;10.10;99.90
2621;DHT22;1320;48.128;11.592;2022-12-20T11:21:24;10.20;99.90
2621;DHT22;1320;48.128;11.592;2022-12-20T11:24:08;10.30;99.90
2621;DHT22;1320;48.128;11.592;2022-12-20T11:32:17;10.40;99.90
2621;DHT22;1320;48.128;11.592;2022-12-20T11:34:48;10.50;99.90
2621;DHT22;1320;48.128;11.592;2022-12-20T11:37:19;10.60;99.90
2621;DHT22;1320;48.128;11.592;2022-12-20T11:51:48;10.90;99.90
2621;DHT22;1320;48.128;11.592;2022-12-20T11:58:15;11.10;99.90
2621;DHT22;1320;48.128;11.592;2022-12-20T12:00:12;11.10;99.90
2621;DHT22;1320;48.128;11.592;2022-12-20T12:03:00;11.20;99.90
2621;DHT22;1320;48.128;11.592;2022-12-20T12:05:35;11.20;99.90
2621;DHT22;1320;48.128;11.592;2022-12-20T12:08:11;11.30;99.90
2621;DHT22;1320;48.128;11.592;2022-12-20T12:10:43;11.30;99.90
2621;DHT22;1320;48.128;11.592;2022-12-20T12:13:22;11.30;99.90
2621;DHT22;1320;48.128;11.592;2022-12-20T12:18:37;11.30;99.90
2621;DHT22;1320;48.128;11.592;2022-12-20T12:26:37;11.20;99.90
2621;DHT22;1320;48.128;11.592;2022-12-20T12:29:09;11.30;99.90
2621;DHT22;1320;48.128;11.592;2022-12-20T12:44:38;11.70;99.90
2621;DHT22;1320;48.128;11.592;2022-12-20T12:47:36;11.70;99.90
2621;DHT22;1320;48.128;11.592;2022-12-20T12:50:05;11.70;99.90
2621;DHT22;1320;48.128;11.592;2022-12-20T12:52:40;11.70;99.90
2621;DHT22;1320;48.128;11.592;2022-12-20T13:11:39;11.60;99.90
2621;DHT22;1320;48.128;11.592;2022-12-20T13:16:49;11.50;99.90
2621;DHT22;1320;48.128;11.592;2022-12-20T13:22:19;11.30;99.90
2621;DHT22;1320;48.128;11.592;2022-12-20T13:27:17;11.20;99.90
2621;DHT22;1320;48.128;11.592;2022-12-20T13:30:00;11.20;99.90
2621;DHT22;1320;48.128;11.592;2022-12-20T13:40:41;11.10;99.90
2621;DHT22;1320;48.128;11.592;2022-12-20T13:51:04;10.90;99.90
2621;DHT22;1320;48.128;11.592;2022-12-20T13:53:32;10.90;99.90
2621;DHT22;1320;48.128;11.592;2022-12-20T13:55:58;10.90;99.90
2621;DHT22;1320;48.128;11.592;2022-12-20T13:58:45;10.90;99.90
2621;DHT22;1320;48.128;11.592;2022-12-20T14:01:12;10.90;99.90
2621;DHT22;1320;48.128;11.592;2022-12-20T14:03:44;10.90;99.90
2621;DHT22;1320;48.128;11.592;2022-12-20T14:06:12;10.90;99.90
2621;DHT22;1320;48.128;11.592;2022-12-20T14:08:42;10.90;99.90
2621;DHT22;1320;48.128;11.592;2022-12-20T14:11:29;10.90;99.90
2621;DHT22;1320;48.128;11.592;2022-12-20T14:14:00;10.90;99.90
2621;DHT22;1320;48.128;11.592;2022-12-20T14:16:28;10.90;99.90
2621;DHT22;1320;48.128;11.592;2022-12-20T14:21:23;11.00;99.90
2621;DHT22;1320;48.128;11.592;2022-12-20T14:23:51;11.10;99.90
2621;DHT22;1320;48.128;11.592;2022-12-20T14:26:25;11.20;99.90
2621;DHT22;1320;48.128;11.592;2022-12-20T14:28:57;11.20;99.90
2621;DHT22;1320;48.128;11.592;2022-12-20T14:36:48;11.20;99.90
2621;DHT22;1320;48.128;11.592;2022-12-20T14:39:34;11.10;99.90
2621;DHT22;1320;48.128;11.592;2022-12-20T14:44:33;10.80;99.90
2621;DHT22;1320;48.128;11.592;2022-12-20T14:47:24;10.70;99.90
2621;DHT22;1320;48.128;11.592;2022-12-20T14:50:02;10.60;99.90
2621;DHT22;1320;48.128;11.592;2022-12-20T14:52:32;10.40;99.90
2621;DHT22;1320;48.128;11.592;2022-12-20T15:00:26;10.10;99.90
2621;DHT22;1320;48.128;11.592;2022-12-20T15:10:36;9.80;99.90
2621;DHT22;1320;48.128;11.592;2022-12-20T15:13:02;9.80;99.90
2621;DHT22;1320;48.128;11.592;2022-12-20T15:15:27;9.70;99.90
2621;DHT22;1320;48.128;11.592;2022-12-20T15:17:53;9.60;99.90
2621;DHT22;1320;48.128;11.592;2022-12-20T15:20:19;9.50;99.90
2621;DHT22;1320;48.128;11.592;2022-12-20T15:22:45;9.50;99.90
2621;DHT22;1320;48.128;11.592;2022-12-20T15:25:15;9.40;99.90
2621;DHT22;1320;48.128;11.592;2022-12-20T15:27:42;9.40;99.90
2621;DHT22;1320;48.128;11.592;2022-12-20T15:30:11;9.30;99.90
2621;DHT22;1320;48.128;11.592;2022-12-20T15:32:41;9.20;99.90
2621;DHT22;1320;48.128;11.592;2022-12-20T15:35:14;9.20;99.90
2621;DHT22;1320;48.128;11.592;2022-12-20T15:37:40;9.10;99.90
2621;DHT22;1320;48.128;11.592;2022-12-20T15:40:09;9.00;99.90
2621;DHT22;1320;48.128;11.592;2022-12-20T15:42:39;9.00;99.90
2621;DHT22;1320;48.128;11.592;2022-12-20T15:45:10;8.90;99.90
2621;DHT22;1320;48.128;11.592;2022-12-20T15:47:37;8.80;99.90
2621;DHT22;1320;48.128;11.592;2022-12-20T15:50:03;8.80;99.90
2621;DHT22;1320;48.128;11.592;2022-12-20T15:52:29;8.70;99.90
2621;DHT22;1320;48.128;11.592;2022-12-20T15:54:55;8.70;99.90
2621;DHT22;1320;48.128;11.592;2022-12-20T15:57:21;8.60;99.90
2621;DHT22;1320;48.128;11.592;2022-12-20T15:59:47;8.60;99.90
2621;DHT22;1320;48.128;11.592;2022-12-20T16:02:21;8.50;99.90
2621;DHT22;1320;48.128;11.592;2022-12-20T16:04:47;8.50;99.90
2621;DHT22;1320;48.128;11.592;2022-12-20T16:07:13;8.50;99.90
2621;DHT22;1320;48.128;11.592;2022-12-20T16:09:38;8.40;99.90
2621;DHT22;1320;48.128;11.592;2022-12-20T16:12:22;8.40;99.90
2621;DHT22;1320;48.128;11.592;2022-12-20T16:14:49;8.40;99.90
2621;DHT22;1320;48.128;11.592;2022-12-20T16:17:16;8.40;99.90
2621;DHT22;1320;48.128;11.592;2022-12-20T16:19:42;8.40;99.90
2621;DHT22;1320;48.128;11.592;2022-12-20T16:22:19;8.30;99.90
2621;DHT22;1320;48.128;11.592;2022-12-20T16:24:46;8.30;99.90
2621;DHT22;1320;48.128;11.592;2022-12-20T16:27:12;8.30;99.90
2621;DHT22;1320;48.128;11.592;2022-12-20T16:29:38;8.30;99.90
2621;DHT22;1320;48.128;11.592;2022-12-20T16:32:15;8.30;99.90
2621;DHT22;1320;48.128;11.592;2022-12-20T16:34:41;8.20;99.90
2621;DHT22;1320;48.128;11.592;2022-12-20T16:37:07;8.20;99.90
2621;DHT22;1320;48.128;11.592;2022-12-20T16:39:33;8.10;99.90
2621;DHT22;1320;48.128;11.592;2022-12-20T16:41:59;8.10;99.90
2621;DHT22;1320;48.128;11.592;2022-12-20T16:44:25;8.00;99.90
2621;DHT22;1320;48.128;11.592;2022-12-20T16:46:51;8.00;99.90
2621;DHT22;1320;48.128;11.592;2022-12-20T16:49:17;8.00;99.90
2621;DHT22;1320;48.128;11.592;2022-12-20T16:51:44;8.00;99.90
2621;DHT22;1320;48.128;11.592;2022-12-20T16:54:19;8.00;99.90
2621;DHT22;1320;48.128;11.592;2022-12-20T16:56:45;8.00;99.90
2621;DHT22;1320;48.128;11.592;2022-12-20T16:59:16;8.00;99.90
2621;DHT22;1320;48.128;11.592;2022-12-20T17:01:43;7.90;99.90
2621;DHT22;1320;48.128;11.592;2022-12-20T17:04:13;7.90;99.90
2621;DHT22;1320;48.128;11.592;2022-12-20T17:06:40;7.90;99.90
2621;DHT22;1320;48.128;11.592;2022-12-20T17:09:06;7.90;99.90
2621;DHT22;1320;48.128;11.592;2022-12-20T17:11:32;7.90;99.90
2621;DHT22;1320;48.128;11.592;2022-12-20T17:13:58;7.90;99.90
2621;DHT22;1320;48.128;11.592;2022-12-20T17:16:25;7.90;99.90
2621;DHT22;1320;48.128;11.592;2022-12-20T17:18:52;7.90;99.90
2621;DHT22;1320;48.128;11.592;2022-12-20T17:23:46;7.90;99.90
2621;DHT22;1320;48.128;11.592;2022-12-20T17:26:16;7.90;99.90
2621;DHT22;1320;48.128;11.592;2022-12-20T17:28:42;7.90;99.90
2621;DHT22;1320;48.128;11.592;2022-12-20T17:31:30;7.90;99.90
2621;DHT22;1320;48.128;11.592;2022-12-20T17:34:01;7.90;99.90
2621;DHT22;1320;48.128;11.592;2022-12-20T17:36:26;7.80;99.90
2621;DHT22;1320;48.128;11.592;2022-12-20T17:38:52;7.80;99.90
2621;DHT22;1320;48.128;11.592;2022-12-20T17:41:28;7.80;99.90
2621;DHT22;1320;48.128;11.592;2022-12-20T17:43:55;7.90;99.90
2621;DHT22;1320;48.128;11.592;2022-12-20T17:46:21;7.90;99.90
2621;DHT22;1320;48.128;11.592;2022-12-20T17:48:47;7.90;99.90
2621;DHT22;1320;48.128;11.592;2022-12-20T17:51:19;7.90;99.90
2621;DHT22;1320;48.128;11.592;2022-12-20T17:53:47;7.90;99.90
2621;DHT22;1320;48.128;11.592;2022-12-20T17:56:15;7.90;99.90
2621;DHT22;1320;48.128;11.592;2022-12-20T17:58:47;7.90;99.90
2621;DHT22;1320;48.128;11.592;2022-12-20T18:01:25;7.90;99.90
2621;DHT22;1320;48.128;11.592;2022-12-20T18:03:53;7.90;99.90
2621;DHT22;1320;48.128;11.592;2022-12-20T18:06:20;7.80;99.90
2621;DHT22;1320;48.128;11.592;2022-12-20T18:08:51;7.90;99.90
2621;DHT22;1320;48.128;11.592;2022-12-20T18:11:17;7.90;99.90
2621;DHT22;1320;48.128;11.592;2022-12-20T18:13:49;7.90;99.90
2621;DHT22;1320;48.128;11.592;2022-12-20T18:16:18;7.90;99.90
2621;DHT22;1320;48.128;11.592;2022-12-20T18:18:44;7.90;99.90
2621;DHT22;1320;48.128;11.592;2022-12-20T18:21:12;7.90;99.90
2621;DHT22;1320;48.128;11.592;2022-12-20T18:23:41;7.90;99.90
2621;DHT22;1320;48.128;11.592;2022-12-20T18:28:42;7.90;99.90